Time;durP1;ratioP1;P1;durP2;ratioP2;P2;SDS_P1;SDS_P2;PMS_P1;PMS_P2;Temp;Humidity;BMP_temperature;BMP_pressure;BME280_temperature;BME280_humidity;BME280_pressure;Samples;Min_cycle;Max_cycle;Signal;HPM_P1;HPM_P2
2023/10/21 00:01:49;;;;;;;27.70;8.80;;;;;;;7.94;100.00;98454.75;6254478;28;20443;-72
2023/10/21 00:04:51;;;;;;;18.17;8.77;;;;;;;8.10;100.00;98468.28;6254671;28;20433;-72
2023/10/21 00:07:52;;;;;;;18.88;8.77;;;;;;;8.06;100.00;98469.47;6254726;28;20045;-74
2023/10/21 00:11:02;;;;;;;17.30;7.90;;;;;;;8.10;100.00;98463.06;6254554;28;20049;-71
2023/10/21 00:14:04;;;;;;;19.23;8.77;;;;;;;8.10;100.00;98475.31;6254643;28;20056;-71
2023/10/21 00:17:06;;;;;;;17.27;8.57;;;;;;;8.09;100.00;98471.03;6254269;28;20068;-71
2023/10/21 00:20:09;;;;;;;18.13;8.73;;;;;;;8.05;100.00;98467.81;6254371;28;20041;-70
2023/10/21 00:23:10;;;;;;;20.70;8.45;;;;;;;8.09;100.00;98457.94;6254056;28;20093;-70
2023/10/21 00:26:12;;;;;;;16.25;7.93;;;;;;;8.15;100.00;98473.16;6254373;28;20053;-71
2023/10/21 00:29:14;;;;;;;18.92;8.25;;;;;;;8.17;100.00;98475.63;6254023;28;20057;-70
2023/10/21 00:32:17;;;;;;;22.83;9.55;;;;;;;8.10;100.00;98481.34;6253828;28;20487;-71
2023/10/21 00:35:18;;;;;;;17.05;8.07;;;;;;;8.19;100.00;98487.66;6254296;28;20049;-71
2023/10/21 00:38:19;;;;;;;20.25;8.15;;;;;;;8.22;100.00;98479.56;6254149;28;20429;-71
2023/10/21 00:41:21;;;;;;;21.67;9.40;;;;;;;8.22;100.00;98483.94;6253655;28;20460;-71
2023/10/21 00:44:22;;;;;;;18.48;9.38;;;;;;;8.12;100.00;98483.84;6253792;28;20679;-70
2023/10/21 00:47:25;;;;;;;20.92;9.25;;;;;;;8.19;100.00;98490.25;6253727;28;20357;-71
2023/10/21 00:50:26;;;;;;;18.52;8.40;;;;;;;8.22;100.00;98491.78;6253431;28;20128;-70
2023/10/21 00:53:28;;;;;;;17.55;8.82;;;;;;;8.18;100.00;98495.63;6252800;28;20049;-70
2023/10/21 00:56:30;;;;;;;17.77;8.18;;;;;;;8.20;100.00;98497.16;6253487;28;20462;-70
2023/10/21 00:59:32;;;;;;;20.98;9.30;;;;;;;8.18;100.00;98504.31;6253368;28;20331;-71
2023/10/21 01:02:34;;;;;;;17.92;9.15;;;;;;;8.22;100.00;98513.56;6253262;28;20054;-71
2023/10/21 01:05:36;;;;;;;21.75;8.40;;;;;;;8.28;100.00;98504.41;6253269;28;20424;-71
2023/10/21 01:08:41;;;;;;;19.23;8.68;;;;;;;8.27;100.00;98506.19;6253250;28;20087;-71
2023/10/21 01:11:43;;;;;;;23.45;9.35;;;;;;;8.22;100.00;98510.09;6253271;28;20094;-70
2023/10/21 01:14:45;;;;;;;17.70;9.10;;;;;;;8.22;100.00;98507.47;6253177;28;20053;-71
2023/10/21 01:17:50;;;;;;;21.92;8.55;;;;;;;8.17;100.00;98515.69;6253283;28;20060;-70
2023/10/21 01:20:53;;;;;;;18.75;8.18;;;;;;;8.19;100.00;98523.44;6252835;28;20049;-70
2023/10/21 01:23:55;;;;;;;21.02;9.40;;;;;;;8.24;100.00;98523.91;6252871;28;20054;-70
2023/10/21 01:26:57;;;;;;;20.00;8.77;;;;;;;8.22;100.00;98523.19;6252850;28;20045;-71
2023/10/21 01:29:58;;;;;;;19.88;8.30;;;;;;;8.25;100.00;98533.41;6252634;28;20053;-71
2023/10/21 01:32:59;;;;;;;22.63;9.32;;;;;;;8.33;100.00;98534.47;6252624;28;20046;-70
2023/10/21 01:36:01;;;;;;;18.17;8.63;;;;;;;8.36;100.00;98526.41;6252593;28;20430;-70
2023/10/21 01:39:05;;;;;;;21.55;8.70;;;;;;;8.42;100.00;98532.13;6252789;28;20053;-72
2023/10/21 01:42:06;;;;;;;19.63;9.07;;;;;;;8.35;100.00;98529.09;6252782;28;20434;-71
2023/10/21 01:45:09;;;;;;;25.42;10.65;;;;;;;8.43;100.00;98531.97;6252462;28;20338;-72
2023/10/21 01:48:10;;;;;;;19.48;9.48;;;;;;;8.34;100.00;98537.91;6252358;28;20072;-72
2023/10/21 01:51:13;;;;;;;19.88;9.20;;;;;;;8.38;100.00;98549.84;6252294;28;20046;-72
2023/10/21 01:54:15;;;;;;;19.48;9.45;;;;;;;8.33;100.00;98552.78;6252450;28;20045;-72
2023/10/21 01:57:17;;;;;;;20.75;9.38;;;;;;;8.32;100.00;98564.22;6252773;28;20049;-72
2023/10/21 02:00:20;;;;;;;19.27;8.15;;;;;;;8.33;100.00;98559.81;6252029;28;20046;-72
2023/10/21 02:03:21;;;;;;;23.98;8.95;;;;;;;8.37;100.00;98553.41;6252481;28;20041;-72
2023/10/21 02:06:23;;;;;;;18.42;8.65;;;;;;;8.26;100.00;98554.22;6252079;28;20049;-72
2023/10/21 02:09:25;;;;;;;19.83;9.55;;;;;;;8.37;100.00;98562.09;6251717;28;20078;-72
2023/10/21 02:12:27;;;;;;;20.02;9.30;;;;;;;8.43;100.00;98557.31;6251729;28;20049;-72
2023/10/21 02:15:28;;;;;;;21.77;9.90;;;;;;;8.58;100.00;98551.72;6251795;28;20049;-72
2023/10/21 02:18:30;;;;;;;18.45;8.90;;;;;;;8.56;100.00;98537.91;6250996;28;20045;-72
2023/10/21 02:21:31;;;;;;;23.63;9.95;;;;;;;8.64;100.00;98553.81;6251786;28;20057;-72
2023/10/21 02:24:37;;;;;;;20.25;9.45;;;;;;;8.68;100.00;98553.59;6251654;28;20052;-72
2023/10/21 02:27:39;;;;;;;23.98;10.30;;;;;;;8.72;100.00;98560.22;6251447;28;20050;-72
2023/10/21 02:30:42;;;;;;;20.63;9.15;;;;;;;8.76;100.00;98570.31;6251094;28;20314;-72
2023/10/21 02:33:43;;;;;;;21.55;9.48;;;;;;;8.81;100.00;98569.94;6251228;28;20053;-72
2023/10/21 02:36:45;;;;;;;23.48;9.40;;;;;;;8.80;100.00;98570.91;6251478;28;20049;-72
2023/10/21 02:39:48;;;;;;;20.67;9.98;;;;;;;8.70;100.00;98577.84;6251181;28;20057;-73
2023/10/21 02:42:50;;;;;;;19.25;8.55;;;;;;;8.68;100.00;98567.50;6251045;28;20053;-72
2023/10/21 02:45:51;;;;;;;18.35;8.60;;;;;;;8.64;100.00;98580.00;6251109;28;20167;-71
2023/10/21 02:48:53;;;;;;;18.25;9.40;;;;;;;8.62;100.00;98592.38;6250888;28;20132;-72
2023/10/21 02:51:55;;;;;;;19.20;9.00;;;;;;;8.69;100.00;98587.50;6250828;28;20056;-72
2023/10/21 02:54:58;;;;;;;19.35;9.63;;;;;;;8.76;100.00;98585.19;6251152;28;20426;-72
2023/10/21 02:57:59;;;;;;;19.38;8.38;;;;;;;8.76;100.00;98586.03;6250774;28;20295;-72
2023/10/21 03:01:05;;;;;;;19.30;9.45;;;;;;;8.77;100.00;98592.97;6250530;28;20362;-72
2023/10/21 03:04:07;;;;;;;24.30;9.55;;;;;;;8.74;100.00;98585.34;6250774;28;20049;-72
2023/10/21 03:07:08;;;;;;;21.30;8.75;;;;;;;8.83;100.00;98586.38;6250673;28;20140;-72
2023/10/21 03:10:11;;;;;;;21.30;9.40;;;;;;;8.63;100.00;98590.63;6250631;28;20041;-71
2023/10/21 03:13:13;;;;;;;25.90;10.68;;;;;;;8.60;100.00;98591.69;6250423;28;20060;-72
2023/10/21 03:16:15;;;;;;;22.10;10.20;;;;;;;8.61;100.00;98592.50;6250687;28;20052;-72
2023/10/21 03:19:17;;;;;;;17.83;7.72;;;;;;;8.54;100.00;98596.56;6250108;28;20049;-72
2023/10/21 03:22:18;;;;;;;20.38;9.68;;;;;;;8.51;100.00;98600.25;6250661;28;20068;-72
2023/10/21 03:25:21;;;;;;;18.48;9.30;;;;;;;8.53;100.00;98605.38;6250456;28;20358;-72
2023/10/21 03:28:23;;;;;;;24.80;9.27;;;;;;;8.57;100.00;98602.38;6250308;28;20397;-72
2023/10/21 03:31:25;;;;;;;20.90;9.27;;;;;;;8.63;100.00;98598.47;6250115;28;20056;-72
2023/10/21 03:34:26;;;;;;;17.05;7.80;;;;;;;8.70;100.00;98599.63;6250320;28;20049;-72
2023/10/21 03:37:28;;;;;;;22.23;9.75;;;;;;;8.67;100.00;98606.88;6250388;28;20140;-72
2023/10/21 03:40:31;;;;;;;20.58;9.43;;;;;;;8.61;100.00;98603.81;6250007;28;20049;-72
2023/10/21 03:43:34;;;;;;;19.63;8.10;;;;;;;8.59;100.00;98600.50;6250474;28;20041;-72
2023/10/21 03:46:35;;;;;;;18.58;8.30;;;;;;;8.62;100.00;98600.22;6250063;28;20353;-72
2023/10/21 03:49:38;;;;;;;18.60;8.00;;;;;;;8.62;100.00;98587.13;6250049;28;20327;-72
2023/10/21 03:52:39;;;;;;;16.63;8.00;;;;;;;8.63;100.00;98591.44;6249872;28;20073;-72
2023/10/21 03:55:43;;;;;;;23.13;9.25;;;;;;;8.68;100.00;98592.88;6250480;28;20061;-72
2023/10/21 03:58:44;;;;;;;17.08;8.27;;;;;;;8.73;100.00;98598.56;6250008;28;20052;-72
2023/10/21 04:01:46;;;;;;;18.33;8.40;;;;;;;8.67;100.00;98602.47;6249879;28;20057;-72
2023/10/21 04:04:47;;;;;;;17.80;7.85;;;;;;;8.68;100.00;98612.03;6249891;28;20057;-73
2023/10/21 04:07:49;;;;;;;22.80;8.60;;;;;;;8.67;100.00;98612.94;6250647;28;20234;-72
2023/10/21 04:10:52;;;;;;;16.05;7.72;;;;;;;8.67;100.00;98606.88;6249628;28;20060;-72
2023/10/21 04:13:54;;;;;;;22.08;8.45;;;;;;;8.70;100.00;98615.34;6249808;28;20356;-72
2023/10/21 04:16:55;;;;;;;20.73;8.93;;;;;;;8.77;100.00;98623.56;6250076;28;20057;-72
2023/10/21 04:19:57;;;;;;;22.85;9.65;;;;;;;8.72;100.00;98617.81;6249917;28;20053;-72
2023/10/21 04:22:58;;;;;;;19.20;9.05;;;;;;;8.78;100.00;98626.03;6249710;28;20132;-73
2023/10/21 04:26:01;;;;;;;17.58;7.90;;;;;;;8.79;100.00;98632.94;6249804;28;20056;-72
2023/10/21 04:29:02;;;;;;;20.88;8.70;;;;;;;8.74;100.00;98637.72;6250404;28;20061;-72
2023/10/21 04:32:06;;;;;;;22.23;9.05;;;;;;;8.80;100.00;98639.81;6254318;28;20053;-72
2023/10/21 04:35:09;;;;;;;17.85;8.73;;;;;;;8.76;100.00;98642.81;6254324;28;20085;-73
2023/10/21 04:38:10;;;;;;;18.77;8.40;;;;;;;8.73;100.00;98641.28;6254568;28;20057;-72
2023/10/21 04:41:13;;;;;;;20.23;8.50;;;;;;;8.86;100.00;98647.22;6253724;28;20050;-73
2023/10/21 04:44:14;;;;;;;20.15;8.68;;;;;;;8.77;100.00;98652.34;6253751;28;20056;-73
2023/10/21 04:47:16;;;;;;;17.77;8.23;;;;;;;8.77;100.00;98647.13;6254050;28;20053;-73
2023/10/21 04:50:18;;;;;;;16.73;8.05;;;;;;;8.85;100.00;98652.56;6253581;28;20099;-73
2023/10/21 04:53:19;;;;;;;23.77;8.85;;;;;;;8.88;100.00;98654.94;6253837;28;20057;-72
2023/10/21 04:56:22;;;;;;;19.90;8.82;;;;;;;8.87;100.00;98658.53;6253763;28;20053;-72
2023/10/21 04:59:23;;;;;;;24.88;9.38;;;;;;;8.91;100.00;98666.97;6253284;28;20362;-72
2023/10/21 05:02:25;;;;;;;22.08;9.57;;;;;;;8.89;100.00;98660.03;6253385;28;20049;-72
2023/10/21 05:05:26;;;;;;;20.02;8.63;;;;;;;8.97;100.00;98669.09;6253412;28;20057;-72
2023/10/21 05:08:28;;;;;;;19.10;8.43;;;;;;;8.96;100.00;98657.78;6253533;28;20053;-72
2023/10/21 05:11:31;;;;;;;18.95;8.80;;;;;;;8.95;100.00;98666.59;6252970;28;20049;-73
2023/10/21 05:14:32;;;;;;;19.63;8.95;;;;;;;9.03;100.00;98672.03;6253326;28;20053;-72
2023/10/21 05:17:34;;;;;;;16.80;8.40;;;;;;;9.10;100.00;98667.16;6253192;28;20049;-72
2023/10/21 05:20:35;;;;;;;19.50;8.32;;;;;;;9.19;100.00;98666.41;6252749;28;20438;-72
2023/10/21 05:23:36;;;;;;;18.50;7.95;;;;;;;9.23;100.00;98673.06;6253030;28;20054;-72
2023/10/21 05:26:39;;;;;;;21.08;8.77;;;;;;;9.27;100.00;98677.09;6252983;28;20056;-72
2023/10/21 05:29:41;;;;;;;15.13;7.53;;;;;;;9.23;100.00;98680.09;6252727;28;20056;-72
2023/10/21 05:32:42;;;;;;;16.52;8.43;;;;;;;9.18;100.00;98677.03;6252398;28;20053;-73
2023/10/21 05:35:44;;;;;;;16.17;7.80;;;;;;;9.09;100.00;98681.22;6252578;28;20358;-73
2023/10/21 05:38:46;;;;;;;19.58;9.02;;;;;;;9.06;100.00;98684.91;6252571;28;20064;-73
2023/10/21 05:41:49;;;;;;;18.98;8.98;;;;;;;9.12;100.00;98684.41;6252151;28;20052;-72
2023/10/21 05:44:50;;;;;;;15.55;8.20;;;;;;;9.22;100.00;98699.38;6252438;28;20071;-72
2023/10/21 05:47:53;;;;;;;15.40;7.80;;;;;;;9.20;100.00;98703.94;6252591;28;20056;-73
2023/10/21 05:50:54;;;;;;;20.75;8.73;;;;;;;9.14;100.00;98711.34;6251992;28;20053;-73
2023/10/21 05:53:57;;;;;;;19.67;8.55;;;;;;;9.12;100.00;98715.84;6252580;28;20050;-72
2023/10/21 05:57:00;;;;;;;15.73;7.45;;;;;;;9.13;100.00;98722.78;6252335;28;20103;-72
2023/10/21 06:00:01;;;;;;;21.70;9.15;;;;;;;9.14;100.00;98728.84;6251868;28;20441;-73
2023/10/21 06:03:05;;;;;;;23.13;10.82;;;;;;;9.14;100.00;98739.31;6251791;28;20385;-72
2023/10/21 06:06:07;;;;;;;22.30;10.18;;;;;;;9.16;100.00;98740.03;6251956;28;20061;-72
2023/10/21 06:09:09;;;;;;;18.30;8.95;;;;;;;9.10;100.00;98746.59;6252142;28;20464;-72
2023/10/21 06:12:12;;;;;;;18.05;8.27;;;;;;;9.08;100.00;98761.63;6251569;28;20045;-72
2023/10/21 06:15:14;;;;;;;21.10;9.00;;;;;;;9.18;100.00;98769.56;6251673;28;20068;-73
2023/10/21 06:18:16;;;;;;;19.23;9.05;;;;;;;9.17;100.00;98774.91;6251585;28;20438;-72
2023/10/21 06:21:17;;;;;;;17.75;7.53;;;;;;;9.25;100.00;98775.16;6251533;28;20050;-72
2023/10/21 06:24:18;;;;;;;16.85;8.13;;;;;;;9.26;100.00;98782.88;6251390;28;20053;-72
2023/10/21 06:27:22;;;;;;;19.20;8.55;;;;;;;9.26;100.00;98790.75;6251648;28;20053;-72
2023/10/21 06:30:23;;;;;;;16.52;7.32;;;;;;;9.30;100.00;98794.78;6251216;28;20056;-72
2023/10/21 06:33:25;;;;;;;14.93;7.53;;;;;;;9.32;100.00;98795.53;6251042;28;20061;-72
2023/10/21 06:36:26;;;;;;;17.05;6.78;;;;;;;9.32;100.00;98797.31;6251247;28;20053;-72
2023/10/21 06:39:28;;;;;;;15.23;7.38;;;;;;;9.28;100.00;98799.34;6251532;28;20132;-72
2023/10/21 06:42:31;;;;;;;14.57;6.68;;;;;;;9.18;100.00;98806.25;6250961;28;20470;-72
2023/10/21 06:45:32;;;;;;;12.25;6.55;;;;;;;9.25;100.00;98823.16;6250979;28;20056;-72
2023/10/21 06:48:34;;;;;;;14.02;6.78;;;;;;;9.25;100.00;98823.16;6251104;28;20366;-72
2023/10/21 06:51:35;;;;;;;13.65;6.40;;;;;;;9.31;100.00;98838.41;6249851;28;20046;-72
2023/10/21 06:54:37;;;;;;;12.43;6.20;;;;;;;9.26;100.00;98830.06;6251303;28;20049;-72
2023/10/21 06:57:40;;;;;;;16.77;6.82;;;;;;;9.29;100.00;98839.47;6250828;28;20053;-72
2023/10/21 07:00:42;;;;;;;12.10;6.60;;;;;;;9.34;100.00;98840.78;6250449;28;20358;-73
2023/10/21 07:03:43;;;;;;;13.70;6.28;;;;;;;9.33;100.00;98846.16;6251005;28;20056;-72
2023/10/21 07:06:45;;;;;;;12.75;6.07;;;;;;;9.30;100.00;98849.84;6250486;28;20049;-72
2023/10/21 07:09:47;;;;;;;13.38;6.40;;;;;;;9.36;100.00;98852.00;6250590;28;20053;-72
2023/10/21 07:12:51;;;;;;;11.40;5.65;;;;;;;9.43;100.00;98859.38;6250252;28;20049;-72
2023/10/21 07:15:52;;;;;;;11.82;5.63;;;;;;;9.48;100.00;98862.47;6250826;28;20071;-72
2023/10/21 07:18:54;;;;;;;11.85;5.65;;;;;;;9.51;100.00;98868.28;6250400;28;20046;-73
2023/10/21 07:21:55;;;;;;;12.95;6.97;;;;;;;9.50;100.00;98873.66;6250167;28;20198;-73
2023/10/21 07:24:57;;;;;;;12.73;6.22;;;;;;;9.51;100.00;98881.41;6250278;28;20061;-73
2023/10/21 07:28:00;;;;;;;10.30;5.18;;;;;;;9.63;100.00;98879.63;6250333;28;20442;-72
2023/10/21 07:31:02;;;;;;;10.35;5.10;;;;;;;9.68;100.00;98897.59;6249923;28;20045;-72
2023/10/21 07:34:03;;;;;;;12.13;5.25;;;;;;;9.68;100.00;98898.44;6250145;28;20049;-72
2023/10/21 07:37:04;;;;;;;11.35;5.10;;;;;;;9.73;100.00;98900.69;6250338;28;20057;-72
2023/10/21 07:40:07;;;;;;;10.32;5.05;;;;;;;9.79;100.00;98911.53;6249957;28;20361;-73
2023/10/21 07:43:10;;;;;;;11.63;6.22;;;;;;;9.75;100.00;98920.59;6249620;28;20453;-73
2023/10/21 07:46:12;;;;;;;8.45;4.85;;;;;;;9.76;100.00;98917.00;6250190;28;20056;-73
2023/10/21 07:49:14;;;;;;;9.90;5.68;;;;;;;9.74;100.00;98926.78;6250524;28;20322;-72
2023/10/21 07:52:15;;;;;;;12.43;5.93;;;;;;;9.77;100.00;98936.22;6249822;28;20056;-72
2023/10/21 07:55:17;;;;;;;13.82;5.72;;;;;;;9.78;100.00;98946.59;6250410;28;20434;-73
2023/10/21 07:58:19;;;;;;;9.35;4.68;;;;;;;9.82;100.00;98952.44;6250100;28;20057;-73
2023/10/21 08:01:21;;;;;;;10.68;6.10;;;;;;;9.87;100.00;98960.78;6250017;28;20076;-73
2023/10/21 08:04:22;;;;;;;12.63;5.45;;;;;;;9.95;100.00;98975.88;6252977;28;20052;-73
2023/10/21 08:07:24;;;;;;;9.15;5.45;;;;;;;9.95;100.00;98975.88;6254971;28;20055;-73
2023/10/21 08:10:25;;;;;;;10.10;5.63;;;;;;;9.96;100.00;98969.72;6254483;28;20056;-72
2023/10/21 08:13:28;;;;;;;11.32;5.80;;;;;;;10.01;100.00;98978.88;6254563;28;20057;-72
2023/10/21 08:16:30;;;;;;;10.18;5.05;;;;;;;10.04;100.00;98985.69;6254649;28;20056;-72
2023/10/21 08:19:31;;;;;;;8.93;4.55;;;;;;;10.10;100.00;98995.69;6254297;28;20061;-73
2023/10/21 08:22:34;;;;;;;10.20;4.90;;;;;;;10.06;100.00;98995.09;6254315;28;20103;-73
2023/10/21 08:25:35;;;;;;;10.27;5.53;;;;;;;10.08;100.00;99002.81;6254610;28;20046;-72
2023/10/21 08:28:38;;;;;;;10.77;6.18;;;;;;;10.08;100.00;99014.19;6254329;28;20052;-73
2023/10/21 08:31:39;;;;;;;12.32;6.10;;;;;;;10.09;100.00;99015.03;6253874;28;20373;-72
2023/10/21 08:34:40;;;;;;;11.43;5.20;;;;;;;10.07;100.00;99032.66;6254106;28;20061;-73
2023/10/21 08:37:42;;;;;;;11.10;4.80;;;;;;;10.09;100.00;99033.41;6254496;28;20045;-73
2023/10/21 08:40:46;;;;;;;14.65;7.00;;;;;;;10.10;100.00;99048.19;6254061;28;20176;-73
2023/10/21 08:43:50;;;;;;;13.18;6.45;;;;;;;10.13;100.00;99050.56;6253830;28;20438;-72
2023/10/21 08:46:54;;;;;;;17.33;5.85;;;;;;;10.15;100.00;99061.78;6254210;28;20077;-72
2023/10/21 08:49:57;;;;;;;17.58;6.93;;;;;;;10.20;100.00;99066.66;6253890;28;20091;-73
2023/10/21 08:53:00;;;;;;;15.05;6.80;;;;;;;10.13;100.00;99067.16;6253503;28;20057;-73
2023/10/21 08:56:01;;;;;;;12.60;6.78;;;;;;;10.11;100.00;99081.34;6253740;28;20053;-73
2023/10/21 08:59:04;;;;;;;15.55;7.22;;;;;;;10.13;100.00;99089.94;6253544;28;20060;-73
2023/10/21 09:02:07;;;;;;;16.48;6.97;;;;;;;10.20;100.00;99088.50;6253432;28;20050;-73
2023/10/21 09:05:12;;;;;;;18.25;9.13;;;;;;;10.14;100.00;99097.69;6253395;28;20434;-72
2023/10/21 09:08:16;;;;;;;17.38;8.10;;;;;;;10.32;100.00;99098.06;6253225;28;20366;-73
2023/10/21 09:11:20;;;;;;;16.38;8.15;;;;;;;10.36;100.00;99109.19;6252919;28;20049;-73
2023/10/21 09:14:23;;;;;;;16.67;8.02;;;;;;;10.43;100.00;99105.09;6252661;28;20349;-73
2023/10/21 09:17:35;;;;;;;14.18;7.80;;;;;;;10.52;100.00;99114.88;6253026;28;20049;-73
2023/10/21 09:20:38;;;;;;;15.32;8.50;;;;;;;10.55;100.00;99121.69;6253064;28;20049;-73
2023/10/21 09:23:50;;;;;;;12.80;7.18;;;;;;;10.62;100.00;99118.44;6252849;28;20072;-73
2023/10/21 09:26:52;;;;;;;15.13;7.65;;;;;;;10.79;100.00;99121.50;6253158;28;20445;-73
2023/10/21 09:29:54;;;;;;;15.43;7.57;;;;;;;10.85;100.00;99119.22;6252629;28;20064;-73
2023/10/21 09:33:03;;;;;;;14.43;7.50;;;;;;;10.95;100.00;99132.47;6252426;28;20465;-73
2023/10/21 09:36:06;;;;;;;15.90;7.57;;;;;;;11.13;100.00;99138.88;6252674;28;20056;-73
2023/10/21 09:39:08;;;;;;;19.10;7.72;;;;;;;11.21;100.00;99145.28;6252833;28;20045;-73
2023/10/21 09:42:09;;;;;;;17.35;7.43;;;;;;;11.22;100.00;99153.06;6252327;28;20057;-74
2023/10/21 09:45:13;;;;;;;14.00;7.43;;;;;;;11.22;100.00;99153.06;6252770;28;20057;-73
2023/10/21 09:48:15;;;;;;;20.08;7.10;;;;;;;11.29;100.00;99158.63;6252680;28;20041;-74
2023/10/21 09:51:18;;;;;;;13.52;6.68;;;;;;;11.36;100.00;99157.19;6251920;28;20056;-74
2023/10/21 09:54:26;;;;;;;12.18;6.60;;;;;;;11.43;100.00;99153.91;6252440;28;20057;-73
2023/10/21 09:57:30;;;;;;;9.50;5.95;;;;;;;11.54;100.00;99162.72;6252267;28;20041;-74
2023/10/21 10:00:35;;;;;;;11.93;6.22;;;;;;;11.63;100.00;99168.06;6252046;28;20053;-74
2023/10/21 10:03:37;;;;;;;10.82;6.63;;;;;;;11.85;100.00;99174.19;6252004;28;20100;-74
2023/10/21 10:06:39;;;;;;;14.82;6.90;;;;;;;11.90;100.00;99180.75;6251997;28;20346;-74
2023/10/21 10:09:42;;;;;;;11.65;5.80;;;;;;;11.95;100.00;99188.25;6251766;28;20053;-74
2023/10/21 10:12:49;;;;;;;10.52;5.10;;;;;;;11.95;100.00;99193.53;6251682;28;20081;-74
2023/10/21 10:15:54;;;;;;;11.40;6.15;;;;;;;11.95;100.00;99200.59;6251797;28;20055;-74
2023/10/21 10:18:56;;;;;;;14.25;6.15;;;;;;;11.98;100.00;99195.88;6252150;28;20084;-73
2023/10/21 10:21:58;;;;;;;10.60;5.32;;;;;;;12.10;100.00;99194.84;6251445;28;20052;-74
2023/10/21 10:25:10;;;;;;;10.07;5.40;;;;;;;12.25;100.00;99200.63;6251759;28;20053;-74
2023/10/21 10:28:17;;;;;;;12.35;5.57;;;;;;;12.31;100.00;99196.63;6250630;28;20351;-73
2023/10/21 10:31:22;;;;;;;11.90;5.55;;;;;;;12.33;100.00;99205.25;6251329;28;20041;-74
2023/10/21 10:34:23;;;;;;;7.93;4.63;;;;;;;12.32;100.00;99209.69;6251207;28;20438;-73
2023/10/21 10:37:31;;;;;;;7.03;4.10;;;;;;;12.37;100.00;99218.03;6251550;28;20060;-73
2023/10/21 10:40:34;;;;;;;7.88;4.80;;;;;;;12.39;100.00;99212.59;6251296;28;20049;-73
2023/10/21 10:43:39;;;;;;;7.50;4.40;;;;;;;12.49;100.00;99216.16;6251082;28;20445;-73
2023/10/21 10:46:42;;;;;;;5.13;3.53;;;;;;;12.53;100.00;99225.44;6251149;28;20366;-74
2023/10/21 10:49:57;;;;;;;5.72;3.10;;;;;;;12.75;100.00;99221.78;6250853;28;20045;-73
2023/10/21 10:52:59;;;;;;;5.40;2.80;;;;;;;12.99;100.00;99226.75;6250607;28;20089;-74
2023/10/21 10:56:01;;;;;;;6.25;2.63;;;;;;;12.95;100.00;99228.81;6250869;28;20049;-74
2023/10/21 10:59:04;;;;;;;6.32;2.42;;;;;;;13.08;100.00;99225.06;6250846;28;20172;-73
2023/10/21 11:02:11;;;;;;;3.58;2.10;;;;;;;13.22;100.00;99230.03;6250341;28;20350;-73
2023/10/21 11:05:17;;;;;;;2.35;1.88;;;;;;;13.25;100.00;99234.16;6251077;28;20462;-73
2023/10/21 11:08:19;;;;;;;2.03;1.55;;;;;;;13.35;100.00;99237.66;6250669;28;20057;-73
2023/10/21 11:11:20;;;;;;;2.10;1.48;;;;;;;13.37;100.00;99241.00;6250373;28;20467;-73
2023/10/21 11:14:23;;;;;;;4.20;2.65;;;;;;;13.37;100.00;99236.56;6250621;28;20053;-73
2023/10/21 11:17:25;;;;;;;5.78;2.38;;;;;;;13.63;100.00;99242.16;6250743;28;20342;-73
2023/10/21 11:20:27;;;;;;;3.42;1.80;;;;;;;13.80;100.00;99237.13;6250250;28;20056;-70
2023/10/21 11:23:28;;;;;;;4.88;2.67;;;;;;;14.05;100.00;99238.38;6250583;28;20053;-73
2023/10/21 11:26:31;;;;;;;2.75;1.52;;;;;;;14.30;100.00;99237.75;6250796;28;20488;-73
2023/10/21 11:29:33;;;;;;;2.58;1.50;;;;;;;14.38;100.00;99235.25;6250654;28;20049;-73
2023/10/21 11:32:37;;;;;;;3.13;1.80;;;;;;;14.47;100.00;99255.53;6250330;28;20054;-71
2023/10/21 11:35:40;;;;;;;1.42;1.30;;;;;;;14.41;100.00;99244.72;6250509;28;20049;-70
2023/10/21 11:38:42;;;;;;;3.45;1.30;;;;;;;14.38;100.00;99260.84;6252508;28;20049;-70
2023/10/21 11:41:45;;;;;;;2.25;1.55;;;;;;;14.30;100.00;99266.00;6255125;28;20050;-71
2023/10/21 11:44:57;;;;;;;1.27;1.00;;;;;;;14.24;100.00;99275.34;6255391;28;20224;-71
2023/10/21 11:48:00;;;;;;;2.90;0.75;;;;;;;14.23;100.00;99275.50;6255117;28;20076;-71
2023/10/21 11:51:02;;;;;;;2.50;0.90;;;;;;;14.11;100.00;99282.72;6254977;28;20050;-70
2023/10/21 11:54:08;;;;;;;1.92;0.90;;;;;;;14.06;100.00;99288.41;6255065;28;20064;-72
2023/10/21 11:57:40;;;;;;;2.25;0.90;;;;;;;14.12;100.00;99292.31;6255103;28;20354;-71
2023/10/21 12:07:49;;;;;;;1.02;0.90;;;;;;;14.05;100.00;99315.81;6255316;28;20057;-69
2023/10/21 12:11:13;;;;;;;1.67;1.00;;;;;;;14.37;100.00;99318.16;6254483;28;20075;-70
2023/10/21 12:21:37;;;;;;;0.80;0.60;;;;;;;14.29;100.00;99347.09;6254427;28;20046;-72
2023/10/21 12:25:15;;;;;;;0.95;0.90;;;;;;;14.33;100.00;99350.28;6254710;28;20060;-72
2023/10/21 12:38:38;;;;;;;0.98;0.70;;;;;;;14.79;100.00;99370.72;6254721;28;20077;-72
2023/10/21 12:41:39;;;;;;;0.70;0.70;;;;;;;15.20;100.00;99366.00;6253841;28;20049;-70
2023/10/21 12:44:47;;;;;;;0.82;0.60;;;;;;;15.12;100.00;99372.00;6254103;28;20057;-71
2023/10/21 12:47:49;;;;;;;0.90;0.70;;;;;;;15.14;100.00;99382.47;6253825;28;20433;-72
2023/10/21 12:50:50;;;;;;;0.88;0.70;;;;;;;14.98;100.00;99391.00;6252539;28;20462;-72
2023/10/21 12:53:53;;;;;;;0.60;0.50;;;;;;;15.09;100.00;99390.00;6254036;28;20045;-71
2023/10/21 12:56:55;;;;;;;1.27;0.52;;;;;;;15.47;100.00;99381.06;6253914;28;20053;-71
2023/10/21 12:59:56;;;;;;;0.55;0.55;;;;;;;15.64;100.00;99398.84;6253615;28;20140;-71
2023/10/21 13:02:57;;;;;;;0.52;0.50;;;;;;;15.79;100.00;99398.34;6253270;28;20434;-71
2023/10/21 13:05:59;;;;;;;0.60;0.60;;;;;;;15.56;100.00;99398.72;6253679;28;20057;-72
2023/10/21 13:09:19;;;;;;;1.10;0.90;;;;;;;15.68;100.00;99413.47;6253559;28;20053;-72
2023/10/21 13:12:20;;;;;;;0.70;0.63;;;;;;;15.93;100.00;99411.09;6253167;28;20045;-72
2023/10/21 13:15:23;;;;;;;0.45;0.40;;;;;;;16.18;100.00;99405.09;6253429;28;20160;-71
2023/10/21 13:18:25;;;;;;;0.30;0.30;;;;;;;16.39;100.00;99422.50;6253279;28;20061;-72
2023/10/21 13:21:26;;;;;;;1.38;0.45;;;;;;;16.43;100.00;99418.56;6253009;28;20046;-72
2023/10/21 13:24:29;;;;;;;0.50;0.50;;;;;;;16.53;100.00;99431.72;6253033;28;20346;-71
2023/10/21 13:27:30;;;;;;;0.30;0.30;;;;;;;16.55;100.00;99420.00;6253009;28;20060;-72
2023/10/21 13:30:32;;;;;;;0.28;0.28;;;;;;;16.73;100.00;99415.53;6252850;28;20057;-72
2023/10/21 13:33:33;;;;;;;2.63;0.30;;;;;;;16.76;100.00;99425.03;6252757;28;20049;-72
2023/10/21 13:36:35;;;;;;;1.30;0.40;;;;;;;16.90;100.00;99423.63;6252950;28;20354;-72
2023/10/21 13:39:38;;;;;;;0.85;0.30;;;;;;;16.89;100.00;99421.94;6252850;28;20057;-72
2023/10/21 13:42:41;;;;;;;0.20;0.20;;;;;;;16.89;100.00;99419.28;6252718;28;20053;-72
2023/10/21 13:45:43;;;;;;;0.43;0.30;;;;;;;16.68;100.00;99432.88;6252804;28;20045;-72
2023/10/21 13:48:44;;;;;;;0.30;0.30;;;;;;;16.76;100.00;99430.34;6252408;28;20068;-72
2023/10/21 13:51:51;;;;;;;0.55;0.38;;;;;;;16.83;100.00;99431.38;6252320;28;20041;-72
2023/10/21 13:54:54;;;;;;;0.38;0.20;;;;;;;16.54;100.00;99441.38;6252285;28;20049;-72
2023/10/21 13:57:55;;;;;;;1.90;0.45;;;;;;;16.58;100.00;99445.38;6252218;28;20050;-72
2023/10/21 14:00:59;;;;;;;0.95;0.20;;;;;;;16.13;100.00;99454.22;6252026;28;20053;-72
2023/10/21 14:04:01;;;;;;;0.68;0.38;;;;;;;15.75;100.00;99452.59;6252192;28;20045;-72
2023/10/21 14:07:02;;;;;;;0.22;0.22;;;;;;;15.42;100.00;99468.03;6252095;28;20053;-72
2023/10/21 14:10:07;;;;;;;0.68;0.50;;;;;;;15.33;100.00;99460.97;6252065;28;20057;-72
2023/10/21 14:13:12;;;;;;;1.38;0.55;;;;;;;15.14;100.00;99464.50;6251590;28;20071;-72
2023/10/21 14:16:14;;;;;;;0.57;0.40;;;;;;;14.97;100.00;99466.03;6252403;28;20143;-72
2023/10/21 14:19:16;;;;;;;0.80;0.40;;;;;;;14.89;100.00;99458.81;6251888;28;20061;-70
2023/10/21 14:22:18;;;;;;;1.17;0.40;;;;;;;14.95;100.00;99473.31;6251788;28;20049;-72
2023/10/21 14:25:21;;;;;;;4.57;0.40;;;;;;;14.92;100.00;99474.41;6251706;28;20125;-72
2023/10/21 14:28:25;;;;;;;0.45;0.22;;;;;;;14.93;100.00;99464.66;6251527;28;20050;-72
2023/10/21 14:31:29;;;;;;;1.20;0.60;;;;;;;14.82;100.00;99476.22;6251173;28;20045;-71
2023/10/21 14:34:31;;;;;;;0.40;0.40;;;;;;;14.67;100.00;99475.81;6251460;28;20049;-72